Latest Weather Observations for Bushy Park

IDT60801

Issued at 6:05 pm EST Thursday 24 April 2014 (issued every 30 minutes, with the page automatically refreshed every 10 minutes)

About weather observations | Map of weather stations | Latest weather observations for TAS | Other Formats
Station Details ID: 095003 Name: BUSHY PARK (BUSHY PARK ESTATES) Lat: -42.71 Lon: 146.90 Height: 27.0 m
Data from the previous 72 hours. | See also: Recent months at Bushy Park
Date/Time
EST
Temp
°C
App
Temp
°C
Dew
Point
Rel
Hum
%
Delta-T
°C
Wind Press
QNH
hPa
Press
MSL
hPa
Rain
since 9 am
mm
Dir
 
Spd
km/h
Gust
km/h
Spd
kts
Gust
kts
24/06:00pm 8.8 4.5 1.3 59 3.1 W 13 20 7 11 - - 1.6
24/05:30pm 8.9 3.4 1.7 60 3.0 N 20 33 11 18 - - 1.6
24/05:00pm 8.8 4.4 2.7 65 2.6 N 15 19 8 10 - - 1.6
24/04:30pm 9.6 5.6 2.6 61 3.0 N 13 24 7 13 - - 1.6
24/04:00pm 10.3 6.5 1.5 54 3.7 W 11 33 6 18 - - 1.6
24/03:30pm 9.8 6.2 2.9 62 3.0 NNW 11 19 6 10 - - 1.6
24/03:00pm 8.6 1.7 2.8 67 2.5 WNW 28 39 15 21 - - 1.6
24/02:30pm 9.6 5.8 3.7 66 2.6 WNW 13 26 7 14 - - 1.6
24/02:00pm 9.4 3.4 3.2 65 2.7 WSW 24 44 13 24 - - 1.4
24/01:48pm 10.9 3.1 1.8 53 3.8 WSW 32 50 17 27 - - 1.4
24/01:30pm 11.8 7.9 3.5 57 3.7 W 13 24 7 13 - - 1.4
24/01:00pm 9.2 4.3 5.0 75 1.9 N 20 37 11 20 - - 1.4
24/12:30pm 10.3 7.4 4.8 69 2.5 ENE 9 13 5 7 - - 1.2
24/12:01pm 7.8 0.8 3.9 76 1.7 SW 30 48 16 26 - - 1.0
24/12:00pm 7.8 0.4 4.2 78 1.6 SW 32 48 17 26 - - 1.0
24/11:30am 9.8 3.4 3.4 64 2.8 SSW 26 41 14 22 - - 0.4
24/11:00am 11.1 7.0 4.5 64 3.0 NNW 15 26 8 14 - - 0.2
24/10:30am 8.7 3.9 4.9 77 1.7 N 19 26 10 14 - - 0.2
24/10:00am 9.3 5.3 5.1 75 1.9 NW 15 20 8 11 - - 0.2
24/09:30am 9.4 6.0 4.2 70 2.3 WNW 11 22 6 12 - - 0.0
24/09:00am 9.4 6.5 4.5 71 2.2 W 9 13 5 7 - - 3.4
24/08:30am 9.4 6.3 5.5 76 1.8 SSW 11 26 6 14 - - 3.2
24/08:00am 8.1 4.7 5.9 86 1.0 NNE 13 19 7 10 - - 3.2
24/07:30am 7.1 5.1 6.2 94 0.4 NNE 6 11 3 6 - - 3.2
24/07:00am 7.7 5.6 6.6 93 0.5 SSW 7 11 4 6 - - 3.2
24/06:30am 7.7 5.5 6.2 90 0.7 WSW 7 11 4 6 - - 3.2
24/06:00am 7.9 6.3 6.4 90 0.7 ENE 4 9 2 5 - - 3.0
24/05:30am 8.3 6.1 6.4 88 0.9 NW 7 11 4 6 - - 3.0
24/05:00am 9.2 4.9 5.2 76 1.8 WNW 17 35 9 19 - - 3.0
24/04:30am 9.9 7.0 6.3 78 1.7 NW 11 17 6 9 - - 3.0
24/04:00am 10.0 4.8 7.3 83 1.3 W 24 37 13 20 - - 2.2
24/03:30am 8.0 6.1 6.5 90 0.7 WNW 6 9 3 5 - - 0.0
24/03:00am 7.8 5.3 6.5 91 0.6 NW 9 11 5 6 - - 0.0
24/02:30am 7.7 5.2 6.4 91 0.6 N 9 13 5 7 - - 0.0
24/02:00am 6.9 3.9 6.0 94 0.4 N 11 13 6 7 - - 0.0
24/01:30am 7.7 4.4 6.2 90 0.7 NNW 13 15 7 8 - - 0.0
24/01:00am 7.3 5.1 6.0 91 0.6 NNW 7 9 4 5 - - 0.0
24/12:30am 6.7 5.3 5.4 91 0.6 NE 2 7 1 4 - - 0.0
24/12:00am 6.5 5.5 5.4 93 0.5 NE 0 0 0 0 - - 0.0
 
Date/Time
EST
Temp
°C
App
Temp
°C
Dew
Point
Rel
Hum
%
Delta-T
°C
Wind Press
QNH
hPa
Press
MSL
hPa
Rain
since 9 am
mm
Dir
 
Spd
km/h
Gust
km/h
Spd
kts
Gust
kts
23/11:30pm 6.9 4.2 5.6 91 0.6 NW 9 11 5 6 - - 0.0
23/11:00pm 7.3 3.9 5.8 90 0.7 N 13 17 7 9 - - 0.0
23/10:30pm 8.1 5.5 5.9 86 1.0 NNW 9 13 5 7 - - 0.0
23/10:00pm 8.3 6.6 5.9 85 1.1 NNW 4 7 2 4 - - 0.0
23/09:30pm 10.2 7.0 5.2 71 2.3 NNW 11 15 6 8 - - 0.0
23/09:00pm 10.2 6.0 5.7 73 2.1 NNW 17 19 9 10 - - 0.0
23/08:30pm 8.8 4.2 5.8 81 1.4 NNW 19 20 10 11 - - 0.0
23/08:00pm 7.1 3.6 5.3 88 0.8 NNW 13 17 7 9 - - 0.0
23/07:30pm 8.1 5.9 5.5 84 1.2 WSW 6 11 3 6 - - 0.0
23/07:00pm 8.5 5.9 6.1 85 1.1 SW 9 11 5 6 - - 0.0
23/06:30pm 9.3 6.6 5.6 78 1.7 NW 9 13 5 7 - - 0.0
23/06:00pm 10.4 9.4 5.7 72 2.2 CALM 0 4 0 2 - - 0.0
23/05:30pm 11.4 8.4 6.1 70 2.5 NNW 11 19 6 10 - - 0.0
23/05:00pm 14.3 10.5 5.8 56 4.0 NNW 15 19 8 10 - - 0.0
23/04:30pm 15.9 10.4 4.2 45 5.4 N 22 32 12 17 - - 0.0
23/04:00pm 15.9 11.0 3.9 44 5.6 N 19 26 10 14 - - 0.0
23/03:30pm 16.0 11.0 4.6 46 5.4 N 20 28 11 15 - - 0.0
23/03:00pm 16.2 10.2 3.5 42 5.8 NNW 24 32 13 17 - - 0.0
23/02:30pm 16.3 11.9 4.8 46 5.4 NNW 17 24 9 13 - - 0.0
23/02:00pm 16.4 12.1 5.2 47 5.3 NNW 17 26 9 14 - - 0.0
23/01:30pm 16.4 11.1 4.9 46 5.5 NNW 22 32 12 17 - - 0.0
23/01:00pm 16.5 12.9 5.1 47 5.4 NW 13 28 7 15 - - 0.0
23/12:30pm 16.3 12.8 5.6 49 5.1 NNW 13 20 7 11 - - 0.0
23/12:00pm 16.2 12.4 5.7 49 5.1 N 15 22 8 12 - - 0.0
23/11:30am 15.0 11.9 7.4 60 3.8 NNE 13 19 7 10 - - 0.0
23/11:00am 13.1 11.4 7.4 68 2.8 NE 6 9 3 5 - - 0.0
23/10:30am 12.5 11.0 6.9 68 2.7 NE 4 9 2 5 - - 0.0
23/10:00am 11.8 9.8 7.3 74 2.2 ENE 7 11 4 6 - - 0.0
23/09:30am 10.9 9.2 7.4 79 1.7 NE 6 9 3 5 - - 0.0
23/09:00am 9.7 7.8 6.7 81 1.4 SSW 6 9 3 5 - - 0.2
23/08:30am 8.2 6.7 6.7 90 0.7 ESE 4 9 2 5 - - 0.2
23/08:00am 7.0 5.7 6.1 94 0.4 SSW 2 9 1 5 - - 0.2
23/07:30am 5.9 4.8 5.0 94 0.4 CALM 0 0 0 0 - - 0.2
23/07:00am 5.1 3.8 4.2 94 0.4 CALM 0 0 0 0 - - 0.2
23/06:30am 4.9 1.9 4.2 95 0.3 S 9 11 5 6 - - 0.2
23/06:00am 5.6 4.4 4.7 94 0.4 CALM 0 0 0 0 - - 0.2
23/05:30am 6.8 4.5 5.7 93 0.5 SSE 7 9 4 5 - - 0.2
23/05:00am 7.8 5.9 6.5 91 0.6 N 6 7 3 4 - - 0.2
23/04:30am 7.9 7.1 6.4 90 0.7 CALM 0 0 0 0 - - 0.2
23/04:00am 7.7 6.0 5.9 88 0.8 NE 4 9 2 5 - - 0.2
23/03:30am 7.7 6.0 5.9 88 0.8 E 4 9 2 5 - - 0.2
23/03:00am 7.6 5.3 5.8 88 0.8 SW 7 11 4 6 - - 0.2
23/02:30am 7.0 4.3 5.4 89 0.7 SW 9 11 5 6 - - 0.2
23/02:00am 7.9 5.2 5.7 86 1.0 WSW 9 11 5 6 - - 0.2
23/01:30am 8.9 6.3 6.1 82 1.3 NNW 9 17 5 9 - - 0.2
23/01:00am 8.5 6.3 6.3 86 1.0 NNE 7 13 4 7 - - 0.2
23/12:30am 8.4 5.8 6.2 86 1.0 WNW 9 13 5 7 - - 0.2
23/12:00am 8.8 6.3 6.4 85 1.1 NNE 9 11 5 6 - - 0.2
 
Date/Time
EST
Temp
°C
App
Temp
°C
Dew
Point
Rel
Hum
%
Delta-T
°C
Wind Press
QNH
hPa
Press
MSL
hPa
Rain
since 9 am
mm
Dir
 
Spd
km/h
Gust
km/h
Spd
kts
Gust
kts
22/11:30pm 9.2 7.2 6.9 85 1.1 WNW 7 11 4 6 - - 0.2
22/11:00pm 9.7 7.5 6.3 79 1.6 WNW 7 11 4 6 - - 0.2
22/10:30pm 9.7 7.1 6.3 79 1.6 NW 9 13 5 7 - - 0.2
22/10:00pm 10.7 7.6 5.5 70 2.4 NNW 11 15 6 8 - - 0.2
22/09:30pm 12.1 8.0 4.2 58 3.6 W 15 26 8 14 - - 0.2
22/09:00pm 12.4 7.5 4.1 57 3.7 W 19 46 10 25 - - 0.2
22/08:30pm 12.4 8.4 5.1 61 3.4 WNW 15 30 8 16 - - 0.2
22/08:00pm 12.1 8.5 6.7 69 2.6 NW 15 24 8 13 - - 0.2
22/07:30pm 13.0 9.0 6.6 65 3.1 WSW 17 28 9 15 - - 0.2
22/07:00pm 13.1 9.8 6.5 64 3.2 W 13 22 7 12 - - 0.2
22/06:30pm 13.2 10.1 5.6 60 3.6 W 11 17 6 9 - - 0.2
22/06:00pm 12.9 9.7 5.0 58 3.7 NW 11 15 6 8 - - 0.2
22/05:30pm 13.7 10.2 3.3 49 4.7 W 11 15 6 8 - - 0.2
22/05:00pm 14.1 9.8 3.3 48 4.9 WNW 15 19 8 10 - - 0.2
22/04:30pm 15.3 11.1 3.9 46 5.3 WSW 15 28 8 15 - - 0.2
22/04:00pm 15.8 11.4 2.9 42 5.8 W 15 26 8 14 - - 0.2
22/03:30pm 16.2 11.8 2.9 41 6.0 WSW 15 35 8 19 - - 0.2
22/03:00pm 16.7 11.4 3.1 40 6.2 W 20 37 11 20 - - 0.2
22/02:30pm 16.9 11.9 3.4 40 6.2 W 19 32 10 17 - - 0.2
22/02:00pm 17.0 12.2 4.4 43 5.9 W 19 39 10 21 - - 0.2
22/01:30pm 16.3 9.9 3.4 42 5.9 W 26 48 14 26 - - 0.2
22/01:10pm 16.6 10.4 6.0 49 5.2 WSW 28 52 15 28 - - 0.2
22/01:00pm 16.5 11.0 6.1 50 5.1 WSW 24 39 13 21 - - 0.2
22/12:30pm 16.2 10.2 7.0 54 4.5 W 28 50 15 27 - - 0.2
22/12:00pm 17.3 12.9 8.9 57 4.3 WSW 22 35 12 19 - - 0.0
22/11:30am 17.0 13.2 9.2 60 4.1 W 19 32 10 17 - - 0.0
22/11:00am 17.7 14.2 8.9 56 4.6 NW 17 28 9 15 - - 0.0
22/10:30am 17.8 15.5 11.6 67 3.4 NW 15 22 8 12 - - 0.0
22/10:00am 14.1 12.3 12.1 88 1.1 NNW 13 15 7 8 - - 0.0
22/09:30am 12.3 11.4 11.4 94 0.5 N 7 11 4 6 - - 0.0
22/09:00am 11.4 10.3 10.6 95 0.4 NNW 7 11 4 6 - - 7.2
22/08:30am 10.6 9.2 9.6 93 0.5 NW 7 11 4 6 - - 7.2
22/08:00am 9.7 7.8 9.1 96 0.3 S 9 13 5 7 - - 7.2
22/07:30am 8.9 6.4 8.3 96 0.3 SSE 11 15 6 8 - - 7.2
22/07:00am 8.3 5.9 7.2 93 0.5 SE 9 17 5 9 - - 7.2
22/06:30am 8.6 6.1 8.0 96 0.3 S 11 19 6 10 - - 7.2
22/06:00am 9.4 6.2 8.4 93 0.5 NW 15 22 8 12 - - 7.2
22/05:30am 9.0 6.1 8.0 93 0.5 WNW 13 22 7 12 - - 7.2
22/05:00am 8.0 3.2 7.2 95 0.4 NNW 22 30 12 16 - - 7.2
22/04:30am 7.6 3.2 6.7 94 0.4 NNW 19 24 10 13 - - 7.2
22/04:00am 7.1 3.5 6.7 97 0.2 NNW 15 19 8 10 - - 7.2
22/03:30am 6.6 4.0 6.2 97 0.2 N 9 15 5 8 - - 7.2
22/03:00am 6.0 3.3 5.8 99 0.1 N 9 13 5 7 - - 7.2
22/02:30am 6.4 3.8 6.0 97 0.2 N 9 13 5 7 - - 7.2
22/02:00am 6.3 3.6 5.6 95 0.3 N 9 13 5 7 - - 7.2
22/01:30am 6.6 4.0 6.2 97 0.2 N 9 11 5 6 - - 7.2
22/01:00am 7.4 5.4 7.0 97 0.2 N 7 9 4 5 - - 7.2
22/12:30am 7.8 6.8 7.2 96 0.3 N 2 7 1 4 - - 7.2
22/12:00am 7.8 5.8 7.2 96 0.3 NNW 7 9 4 5 - - 7.2
 
Date/Time
EST
Temp
°C
App
Temp
°C
Dew
Point
Rel
Hum
%
Delta-T
°C
Wind Press
QNH
hPa
Press
MSL
hPa
Rain
since 9 am
mm
Dir
 
Spd
km/h
Gust
km/h
Spd
kts
Gust
kts
21/11:30pm 8.0 6.3 7.4 96 0.3 N 6 9 3 5 - - 7.2
21/11:00pm 8.0 6.3 7.4 96 0.3 N 6 7 3 4 - - 7.2
21/10:30pm 7.9 7.3 7.3 96 0.3 CALM 0 6 0 3 - - 7.0
21/10:00pm 8.0 6.6 7.2 95 0.4 NNE 4 9 2 5 - - 5.4
21/09:30pm 8.1 7.5 7.3 95 0.4 CALM 0 0 0 0 - - 3.4
21/09:00pm 8.2 7.6 7.4 95 0.4 CALM 0 0 0 0 - - 3.4
21/08:30pm 8.2 6.4 7.1 93 0.5 NE 6 7 3 4 - - 3.2
21/08:00pm 8.4 7.7 7.1 91 0.6 CALM 0 0 0 0 - - 2.2
21/07:30pm 8.8 6.8 7.3 90 0.7 N 7 9 4 5 - - 0.8
21/07:00pm 9.3 7.4 7.6 89 0.8 N 7 9 4 5 - - 0.2
21/06:30pm 9.7 7.9 7.2 84 1.2 N 6 9 3 5 - - 0.0

Other Formats:

Comma delimited format used in spreadsheet applications
http://www.bom.gov.au/fwo/IDT60801/IDT60801.94964.axf

JavaScript Object Notation format (JSON) in row-major order
http://www.bom.gov.au/fwo/IDT60801/IDT60801.94964.json